Aérodrome :
LOGIN :

S'inscrire | Disclaimer

   EN    FR    IT 

 










Légende :    VFR   VFR Marginal   IFR   IFR Intensif   IFR Très Intensif
Visi : 
Plafond : 
>= 8 km
>= 3000ft
5 à 8 km
1000 à 3000 ft
1500m à 5 km
500 à 1000 ft
800 à 1500m
200 à 500 ft
< 800m
< 200 ft
Symboles :   Orages  Brouillard  Fortes neiges  Fortes précipitations  Vent > 20 kt
SIGMETs :   Divers  Orages  Givrage  Turbulence  Onde Orograph.  Cendres Volcan.







- Altitude de l'aérodrome : 204 ft
- Code IATA : AGF
- Voir les cartes d'approche


LFBA - Agen

DERNIER METAR :
  • 240930Z AUTO VRB03KT 7000 NSC 20/16 Q1022

METARs EXPIRÉS :
  • 240900Z AUTO 11004KT 080V140 6000 FEW004 18/15 Q1022
  • 240830Z AUTO 11005KT 080V140 4500 2200 BR BKN003 BKN240 16/15 Q1023
  • 240800Z AUTO 10003KT 080V140 0900 R29/0900U FG VV/// 15/14 Q1023
  • 240730Z AUTO 10003KT 070V140 0300 R29/0375N FG VV/// 14/13 Q1023
  • 240700Z AUTO VRB03KT 0250 R29/0325N FG VV/// 13/13 Q1023

TAF AMD TAF LFBA
Valide du 24 à 08h jusqu'au 24 à 15h UTC


240821Z 2408/2415 12004KT 0900 FG VV///
BECMG 2409/2410 CAVOK
Pas de NOTAMs connus pour ce terrain.



MET'MAP, la Météo Aéronautique d'un coup d'oeil ! - Copyright ORBIFLY Décembre 2007 - Disclaimer

ORBIFLY MET'MAP TEAM :

Programmation & Développement : Alexandra Zaïnal
Conception & Développement : Baudouin d'Aumeries
Co-Programmation & Développement : Marc-Olivier Méhu
Soutien technique & logistique : Manuel Goepfert

Contact : metmap@orbifly.com




SOURCES & CREDITS :

   NOAA